Time;durP1;ratioP1;P1;durP2;ratioP2;P2;SDS_P1;SDS_P2;PMS_P1;PMS_P2;Temp;Humidity;BMP_temperature;BMP_pressure;BME280_temperature;BME280_humidity;BME280_pressure;Samples;Min_cycle;Max_cycle;Signal;HPM_P1;HPM_P2
2022/04/01 00:01:22;;;;;;;1.85;0.70;;;2.80;99.90;;;;;;4974124;28;20026;-73
2022/04/01 00:03:47;;;;;;;0.63;0.55;;;2.70;99.90;;;;;;4973515;28;20130;-73
2022/04/01 00:06:13;;;;;;;0.52;0.32;;;2.80;99.90;;;;;;4973989;28;20098;-75
2022/04/01 00:08:38;;;;;;;0.00;0.00;;;2.70;99.90;;;;;;4970584;28;20023;-73
2022/04/01 00:11:04;;;;;;;0.00;0.00;;;2.70;99.90;;;;;;4954638;28;20035;-74
2022/04/01 00:13:30;;;;;;;0.00;0.00;;;2.70;99.90;;;;;;4954015;28;20027;-74
2022/04/01 00:15:55;;;;;;;0.00;0.00;;;2.70;99.90;;;;;;4954295;28;20102;-75
2022/04/01 00:18:21;;;;;;;0.00;0.00;;;2.70;99.90;;;;;;4956248;28;20028;-75
2022/04/01 00:20:47;;;;;;;0.28;0.28;;;2.80;99.90;;;;;;4958366;28;20027;-75
2022/04/01 00:23:14;;;;;;;0.32;0.13;;;2.80;99.90;;;;;;4957205;28;20045;-75
2022/04/01 00:25:41;;;;;;;0.00;0.00;;;2.70;99.90;;;;;;4958330;28;20022;-75
2022/04/01 00:28:07;;;;;;;0.00;0.00;;;2.80;99.90;;;;;;4957964;28;20458;-75
2022/04/01 00:30:34;;;;;;;0.95;0.47;;;2.80;99.90;;;;;;4957469;28;20106;-75
2022/04/01 00:33:00;;;;;;;0.45;0.38;;;2.80;99.90;;;;;;4957709;28;20416;-75
2022/04/01 00:35:26;;;;;;;0.00;0.00;;;2.70;99.90;;;;;;4960222;28;20439;-73
2022/04/01 00:37:52;;;;;;;0.03;0.03;;;2.80;99.90;;;;;;4969551;28;20035;-73
2022/04/01 00:40:19;;;;;;;0.00;0.00;;;2.80;99.90;;;;;;4977192;28;20483;-73
2022/04/01 00:42:45;;;;;;;0.00;0.00;;;2.80;99.90;;;;;;4977289;28;20035;-73
2022/04/01 00:45:11;;;;;;;0.15;0.15;;;2.70;99.90;;;;;;4977082;28;20098;-74
2022/04/01 00:47:38;;;;;;;0.00;0.00;;;2.80;99.90;;;;;;4976512;28;20027;-73
2022/04/01 00:50:05;;;;;;;0.00;0.00;;;2.70;99.90;;;;;;4977461;28;20019;-74
2022/04/01 00:52:32;;;;;;;0.52;0.32;;;2.80;99.90;;;;;;4976548;28;20030;-75
2022/04/01 00:54:59;;;;;;;0.35;0.35;;;2.80;99.90;;;;;;4976632;28;20046;-73
2022/04/01 00:57:26;;;;;;;2.83;0.75;;;2.80;99.90;;;;;;4976397;28;20062;-73
2022/04/01 00:59:54;;;;;;;0.00;0.00;;;2.80;99.90;;;;;;4977922;28;20475;-73
2022/04/01 01:02:20;;;;;;;1.30;0.93;;;2.80;99.90;;;;;;4976641;28;20094;-73
2022/04/01 01:04:46;;;;;;;0.35;0.30;;;2.90;99.90;;;;;;4976721;28;20372;-74
2022/04/01 01:07:14;;;;;;;0.00;0.00;;;2.90;99.90;;;;;;4975515;28;20046;-73
2022/04/01 01:09:40;;;;;;;0.00;0.00;;;2.90;99.90;;;;;;4965147;28;20439;-75
2022/04/01 01:12:06;;;;;;;0.00;0.00;;;2.90;99.90;;;;;;4956909;28;20384;-73
2022/04/01 01:14:35;;;;;;;0.00;0.00;;;2.90;99.90;;;;;;4957398;28;20454;-73
2022/04/01 01:17:02;;;;;;;3.92;1.33;;;2.90;99.90;;;;;;4957920;28;20027;-73
2022/04/01 01:19:30;;;;;;;0.00;0.00;;;2.90;99.90;;;;;;4956626;28;20491;-73
2022/04/01 01:21:56;;;;;;;0.40;0.40;;;2.90;99.90;;;;;;4956288;28;20047;-75
2022/04/01 01:24:31;;;;;;;0.00;0.00;;;2.90;99.90;;;;;;4957141;28;20066;-75
2022/04/01 01:26:58;;;;;;;0.00;0.00;;;2.90;99.90;;;;;;4957494;28;20023;-74
2022/04/01 01:29:29;;;;;;;0.00;0.00;;;2.90;99.90;;;;;;4956653;28;20019;-73
2022/04/01 01:31:58;;;;;;;0.00;0.00;;;3.00;99.90;;;;;;4956760;28;20031;-75
2022/04/01 01:34:25;;;;;;;0.00;0.00;;;2.90;99.90;;;;;;4956530;28;20470;-73
2022/04/01 01:36:52;;;;;;;0.00;0.00;;;2.90;99.90;;;;;;4960586;28;20364;-74
2022/04/01 01:39:18;;;;;;;0.08;0.08;;;2.90;99.90;;;;;;4976663;28;20027;-75
2022/04/01 01:41:45;;;;;;;0.00;0.00;;;2.90;99.90;;;;;;4976136;28;20023;-74
2022/04/01 01:44:11;;;;;;;0.00;0.00;;;2.90;99.90;;;;;;4973852;28;20037;-74
2022/04/01 01:46:38;;;;;;;0.00;0.00;;;2.90;99.90;;;;;;4975656;28;20034;-73
2022/04/01 01:49:04;;;;;;;4.18;0.35;;;3.00;99.90;;;;;;4975430;28;20026;-73
2022/04/01 01:56:59;;;;;;;0.00;0.00;;;2.90;99.90;;;;;;4975354;28;20544;-74
2022/04/01 01:59:26;;;;;;;0.00;0.00;;;2.90;99.90;;;;;;4975602;28;20556;-74
2022/04/01 02:01:52;;;;;;;0.08;0.08;;;3.00;99.90;;;;;;4975497;28;20027;-73
2022/04/01 02:04:22;;;;;;;0.22;0.22;;;3.00;99.90;;;;;;4978633;28;20065;-75
2022/04/01 02:06:48;;;;;;;0.00;0.00;;;3.00;99.90;;;;;;4975779;28;20035;-74
2022/04/01 02:09:15;;;;;;;0.00;0.00;;;3.00;99.90;;;;;;4975233;28;20045;-74
2022/04/01 02:11:41;;;;;;;0.00;0.00;;;2.90;99.90;;;;;;4975278;28;20030;-74
2022/04/01 02:14:06;;;;;;;0.00;0.00;;;3.00;99.90;;;;;;4975442;28;20027;-75
2022/04/01 02:16:33;;;;;;;0.00;0.00;;;2.90;99.90;;;;;;4974215;28;20108;-74
2022/04/01 02:18:59;;;;;;;0.15;0.15;;;2.90;99.90;;;;;;4974799;28;20524;-75
2022/04/01 02:21:24;;;;;;;0.05;0.05;;;2.90;99.90;;;;;;4975435;28;20054;-74
2022/04/01 02:23:53;;;;;;;3.00;1.55;;;3.00;99.90;;;;;;4974414;28;20165;-75
2022/04/01 02:26:19;;;;;;;0.00;0.00;;;2.90;99.90;;;;;;4975432;28;20027;-74
2022/04/01 02:28:45;;;;;;;0.00;0.00;;;2.90;99.90;;;;;;4975408;28;20039;-74
2022/04/01 02:31:18;;;;;;;0.20;0.20;;;2.90;99.90;;;;;;4975326;28;20018;-74
2022/04/01 02:33:43;;;;;;;;;;;2.90;99.90;;;;;;4974755;28;20023;-73
2022/04/01 02:36:12;;;;;;;0.00;0.00;;;2.90;99.90;;;;;;4975010;28;19912;-75
2022/04/01 02:38:40;;;;;;;0.00;0.00;;;2.90;99.90;;;;;;4974942;28;20023;-74
2022/04/01 02:41:07;;;;;;;0.05;0.05;;;2.80;99.90;;;;;;4977172;28;20110;-74
2022/04/01 02:43:34;;;;;;;0.20;0.20;;;2.90;99.90;;;;;;4992818;28;20037;-74
2022/04/01 02:46:00;;;;;;;1.75;0.80;;;2.80;99.90;;;;;;4981803;28;20031;-74
2022/04/01 02:48:26;;;;;;;0.00;0.00;;;2.80;99.90;;;;;;4958348;28;20402;-74
2022/04/01 02:50:52;;;;;;;0.70;0.43;;;2.80;99.90;;;;;;4970644;28;20073;-74
2022/04/01 02:53:18;;;;;;;0.13;0.13;;;2.70;99.90;;;;;;4972869;28;20080;-73
2022/04/01 02:55:44;;;;;;;1.90;0.98;;;2.70;99.90;;;;;;4974160;28;20050;-75
2022/04/01 02:58:10;;;;;;;0.10;0.10;;;2.70;99.90;;;;;;4974784;28;20026;-73
2022/04/01 03:00:38;;;;;;;2.13;0.75;;;2.60;99.90;;;;;;4973403;28;20030;-74
2022/04/01 03:03:06;;;;;;;0.00;0.00;;;2.70;99.90;;;;;;4974363;28;20494;-73
2022/04/01 03:05:44;;;;;;;0.00;0.00;;;2.70;99.90;;;;;;4981058;28;20042;-73
2022/04/01 03:08:11;;;;;;;0.00;0.00;;;2.70;99.90;;;;;;4972467;28;20022;-73
2022/04/01 03:10:39;;;;;;;0.00;0.00;;;2.70;99.90;;;;;;4973968;28;20027;-74
2022/04/01 03:13:07;;;;;;;0.00;0.00;;;2.70;99.90;;;;;;4974964;28;20030;-75
2022/04/01 03:15:33;;;;;;;0.00;0.00;;;2.70;99.90;;;;;;4974572;28;20026;-73
2022/04/01 03:17:59;;;;;;;0.00;0.00;;;2.70;99.90;;;;;;4973784;28;20023;-73
2022/04/01 03:20:29;;;;;;;0.00;0.00;;;2.70;99.90;;;;;;4973002;28;20118;-74
2022/04/01 03:22:55;;;;;;;1.55;0.38;;;2.70;99.90;;;;;;4973725;28;20033;-75
2022/04/01 03:25:21;;;;;;;0.00;0.00;;;2.70;99.90;;;;;;4974510;28;20030;-73
2022/04/01 03:27:47;;;;;;;0.00;0.00;;;2.70;99.90;;;;;;4974828;28;20023;-74
2022/04/01 03:30:14;;;;;;;0.00;0.00;;;2.70;99.90;;;;;;4973128;28;20042;-74
2022/04/01 03:32:40;;;;;;;0.00;0.00;;;2.60;99.90;;;;;;4974123;28;20037;-74
2022/04/01 03:35:17;;;;;;;0.55;0.55;;;2.70;99.90;;;;;;4974119;28;20026;-75
2022/04/01 03:37:45;;;;;;;0.00;0.00;;;2.60;99.90;;;;;;4974434;28;20577;-74
2022/04/01 03:40:14;;;;;;;0.00;0.00;;;2.60;99.90;;;;;;4974077;28;20098;-74
2022/04/01 03:42:44;;;;;;;0.10;0.10;;;2.60;99.90;;;;;;4973733;28;20027;-75
2022/04/01 03:45:11;;;;;;;0.00;0.00;;;2.60;99.90;;;;;;4974165;28;20402;-75
2022/04/01 03:47:40;;;;;;;0.25;0.20;;;2.60;99.90;;;;;;4969168;28;20023;-75
2022/04/01 03:50:09;;;;;;;0.00;0.00;;;2.50;99.90;;;;;;4954425;29;20478;-74
2022/04/01 03:52:35;;;;;;;0.00;0.00;;;2.50;99.90;;;;;;4967326;28;20022;-74
2022/04/01 03:55:07;;;;;;;1.65;0.52;;;2.50;99.90;;;;;;4977269;28;20055;-75
2022/04/01 03:57:37;;;;;;;0.00;0.00;;;2.50;99.90;;;;;;4978105;28;20522;-74
2022/04/01 04:00:07;;;;;;;0.00;0.00;;;2.50;99.90;;;;;;4977254;28;20109;-74
2022/04/01 04:02:34;;;;;;;0.00;0.00;;;2.40;99.90;;;;;;4977817;28;20034;-74
2022/04/01 04:05:04;;;;;;;0.00;0.00;;;2.40;99.90;;;;;;4977927;28;20027;-75
2022/04/01 04:07:32;;;;;;;0.28;0.28;;;2.40;99.90;;;;;;4977800;28;20015;-74
2022/04/01 04:09:58;;;;;;;0.17;0.17;;;2.40;99.90;;;;;;4977585;28;20402;-74
2022/04/01 04:12:27;;;;;;;0.00;0.00;;;2.40;99.90;;;;;;4976758;28;20397;-74
2022/04/01 04:14:53;;;;;;;1.23;1.13;;;2.40;99.90;;;;;;4977704;28;20046;-74
2022/04/01 04:17:37;;;;;;;0.15;0.15;;;2.40;99.90;;;;;;4978924;28;20062;-73
2022/04/01 04:20:09;;;;;;;1.13;0.65;;;2.40;99.90;;;;;;4976005;28;20042;-73
2022/04/01 04:22:43;;;;;;;0.00;0.00;;;2.40;99.90;;;;;;4977573;28;20188;-74
2022/04/01 04:25:14;;;;;;;0.00;0.00;;;2.50;99.90;;;;;;4973098;28;20341;-73
2022/04/01 04:27:56;;;;;;;0.00;0.00;;;2.40;99.90;;;;;;4957916;28;20061;-74
2022/04/01 04:30:30;;;;;;;0.10;0.10;;;2.40;99.90;;;;;;4958031;28;20314;-73
2022/04/01 04:33:01;;;;;;;0.00;0.00;;;2.40;99.90;;;;;;4957701;28;20023;-73
2022/04/01 04:35:29;;;;;;;0.00;0.00;;;2.30;99.90;;;;;;4957941;28;20027;-74
2022/04/01 04:37:57;;;;;;;0.05;0.05;;;2.40;99.90;;;;;;4969466;28;20031;-75
2022/04/01 04:40:25;;;;;;;1.65;0.65;;;2.40;99.90;;;;;;4980046;28;20391;-75
2022/04/01 04:42:53;;;;;;;0.00;0.00;;;2.50;99.90;;;;;;4977370;28;20031;-73
2022/04/01 04:45:20;;;;;;;0.00;0.00;;;2.50;99.90;;;;;;4977093;28;20026;-74
2022/04/01 04:47:47;;;;;;;0.00;0.00;;;2.60;99.90;;;;;;4975405;28;20027;-73
2022/04/01 04:50:13;;;;;;;0.00;0.00;;;2.50;99.90;;;;;;4977196;28;20030;-73
2022/04/01 04:52:44;;;;;;;0.00;0.00;;;2.50;99.90;;;;;;4976417;28;20023;-74
2022/04/01 04:55:17;;;;;;;0.00;0.00;;;2.50;99.90;;;;;;4976674;28;20057;-74
2022/04/01 04:57:44;;;;;;;0.00;0.00;;;2.50;99.90;;;;;;4974694;28;20031;-74
2022/04/01 05:00:10;;;;;;;0.00;0.00;;;2.50;99.90;;;;;;4976556;28;20034;-73
2022/04/01 05:03:13;;;;;;;0.00;0.00;;;2.50;99.90;;;;;;4975267;28;20474;-74
2022/04/01 05:05:43;;;;;;;0.00;0.00;;;2.40;99.90;;;;;;4976570;28;20031;-74
2022/04/01 05:08:28;;;;;;;0.00;0.00;;;2.40;99.90;;;;;;4979359;28;20035;-73
2022/04/01 05:11:07;;;;;;;0.00;0.00;;;2.40;99.90;;;;;;4974963;28;20030;-74
2022/04/01 05:13:55;;;;;;;0.00;0.00;;;2.40;99.90;;;;;;4976207;28;20416;-74
2022/04/01 05:16:24;;;;;;;0.00;0.00;;;2.50;99.90;;;;;;4975292;28;20030;-73
2022/04/01 05:19:04;;;;;;;0.20;0.20;;;2.40;99.90;;;;;;4975945;28;20031;-74
2022/04/01 05:21:43;;;;;;;0.00;0.00;;;2.40;99.90;;;;;;4975047;28;20081;-75
2022/04/01 05:24:14;;;;;;;0.00;0.00;;;2.40;99.90;;;;;;4975681;28;20041;-74
2022/04/01 05:26:52;;;;;;;0.00;0.00;;;2.30;99.90;;;;;;4975944;28;20023;-74
2022/04/01 05:29:26;;;;;;;0.17;0.17;;;2.30;99.90;;;;;;4975624;28;20027;-75
2022/04/01 05:32:06;;;;;;;0.20;0.20;;;2.30;99.90;;;;;;4976119;28;20030;-74
2022/04/01 05:34:49;;;;;;;0.00;0.00;;;2.30;99.90;;;;;;4975941;28;20018;-75
2022/04/01 05:37:16;;;;;;;0.00;0.00;;;2.30;99.90;;;;;;4969110;28;20030;-75
2022/04/01 05:39:49;;;;;;;0.00;0.00;;;2.30;99.90;;;;;;4956621;28;20020;-73
2022/04/01 05:42:18;;;;;;;0.00;0.00;;;2.30;99.90;;;;;;4956736;28;20049;-73
2022/04/01 05:44:43;;;;;;;0.17;0.15;;;2.40;99.90;;;;;;4956641;28;20446;-74
2022/04/01 05:47:10;;;;;;;0.00;0.00;;;2.40;99.90;;;;;;4956118;28;20020;-74
2022/04/01 05:49:43;;;;;;;0.00;0.00;;;2.40;99.90;;;;;;4970654;28;20474;-74
2022/04/01 05:52:10;;;;;;;0.00;0.00;;;2.50;99.90;;;;;;4974752;28;20030;-74
2022/04/01 05:54:38;;;;;;;0.17;0.17;;;2.50;99.90;;;;;;4973833;28;20059;-75
2022/04/01 05:57:07;;;;;;;0.00;0.00;;;2.60;99.90;;;;;;4975167;28;20069;-75
2022/04/01 05:59:33;;;;;;;0.00;0.00;;;2.60;99.90;;;;;;4975202;28;20027;-74
2022/04/01 06:02:02;;;;;;;0.05;0.03;;;2.60;99.90;;;;;;4974699;28;20023;-75
2022/04/01 06:05:03;;;;;;;0.00;0.00;;;2.60;99.90;;;;;;4967007;28;20441;-74
2022/04/01 06:07:47;;;;;;;0.00;0.00;;;2.60;99.90;;;;;;4974375;28;20023;-74
2022/04/01 06:10:26;;;;;;;0.20;0.20;;;2.70;99.90;;;;;;4974916;28;20026;-75
2022/04/01 06:13:21;;;;;;;0.15;0.15;;;2.70;99.90;;;;;;4974857;28;20034;-75
2022/04/01 06:16:11;;;;;;;0.00;0.00;;;2.80;99.90;;;;;;4974175;28;20085;-74
2022/04/01 06:19:09;;;;;;;0.93;0.75;;;2.90;99.90;;;;;;4972455;28;20387;-75
2022/04/01 06:21:48;;;;;;;0.45;0.20;;;2.90;99.90;;;;;;4956239;28;20403;-75
2022/04/01 06:24:29;;;;;;;0.30;0.30;;;3.00;99.90;;;;;;4971802;28;20506;-75
2022/04/01 06:27:00;;;;;;;0.00;0.00;;;3.00;99.90;;;;;;4973339;28;20027;-74
2022/04/01 06:29:56;;;;;;;0.20;0.20;;;3.00;99.90;;;;;;4972528;28;20029;-74
2022/04/01 06:32:29;;;;;;;0.00;0.00;;;3.10;99.90;;;;;;4972977;28;20030;-74
2022/04/01 06:35:02;;;;;;;0.05;0.05;;;3.20;99.90;;;;;;4973380;28;20030;-75
2022/04/01 06:37:28;;;;;;;;;;;3.20;99.90;;;;;;4973222;28;20033;-75
2022/04/01 06:40:12;;;;;;;0.00;0.00;;;3.30;99.90;;;;;;4972976;28;20337;-73
2022/04/01 06:42:39;;;;;;;0.00;0.00;;;3.30;99.90;;;;;;4973462;28;20046;-73
2022/04/01 06:45:08;;;;;;;27.30;1.35;;;3.40;99.90;;;;;;4972894;28;20023;-75
2022/04/01 06:47:34;;;;;;;0.30;0.30;;;3.50;99.90;;;;;;4972927;28;20023;-74
2022/04/01 06:50:00;;;;;;;0.00;0.00;;;3.60;99.90;;;;;;4973259;28;20026;-75
2022/04/01 06:52:26;;;;;;;0.00;0.00;;;3.60;99.90;;;;;;4973450;28;20030;-75
2022/04/01 06:54:54;;;;;;;0.00;0.00;;;3.70;99.90;;;;;;4972781;28;20140;-73
2022/04/01 06:57:20;;;;;;;0.00;0.00;;;3.80;99.90;;;;;;4970112;28;20081;-73
2022/04/01 06:59:46;;;;;;;0.00;0.00;;;3.90;99.90;;;;;;4971432;28;20105;-73
2022/04/01 07:02:11;;;;;;;0.20;0.20;;;3.90;99.90;;;;;;4972563;28;20142;-78
2022/04/01 07:04:37;;;;;;;0.00;0.00;;;4.00;99.90;;;;;;4978413;28;20121;-74
2022/04/01 07:07:03;;;;;;;0.00;0.00;;;4.20;99.90;;;;;;4972965;28;20031;-76
2022/04/01 07:09:29;;;;;;;0.00;0.00;;;4.20;99.90;;;;;;4972798;28;20029;-76
2022/04/01 07:11:58;;;;;;;0.00;0.00;;;4.40;99.90;;;;;;4972243;28;20026;-74
2022/04/01 07:14:27;;;;;;;0.10;0.10;;;4.50;99.90;;;;;;4972122;28;20386;-75
2022/04/01 07:16:55;;;;;;;0.22;0.22;;;4.60;99.90;;;;;;4971288;28;20112;-75
2022/04/01 07:19:21;;;;;;;0.10;0.10;;;4.70;99.90;;;;;;4972079;28;20019;-74
2022/04/01 07:21:47;;;;;;;0.00;0.00;;;4.80;99.90;;;;;;4972794;28;20027;-75
2022/04/01 07:24:13;;;;;;;0.00;0.00;;;4.90;99.90;;;;;;4968679;28;20497;-74
2022/04/01 07:26:39;;;;;;;0.55;0.47;;;4.90;99.90;;;;;;4970791;28;20078;-75
2022/04/01 07:29:06;;;;;;;0.00;0.00;;;5.00;99.90;;;;;;4970288;28;20026;-74
2022/04/01 07:34:36;;;;;;;1.93;0.63;;;5.20;99.90;;;;;;4972538;28;20037;-74
2022/04/01 07:37:02;;;;;;;0.00;0.00;;;5.30;99.90;;;;;;4971896;28;20556;-75
2022/04/01 07:39:28;;;;;;;0.20;0.20;;;5.30;99.90;;;;;;4972268;28;20038;-74
2022/04/01 07:41:54;;;;;;;0.00;0.00;;;5.40;99.90;;;;;;4972076;28;20390;-74
2022/04/01 07:44:21;;;;;;;0.10;0.10;;;5.50;99.90;;;;;;4972094;28;20031;-74
2022/04/01 07:46:48;;;;;;;0.70;0.35;;;5.60;99.90;;;;;;4972214;28;20054;-75
2022/04/01 07:49:14;;;;;;;0.00;0.00;;;5.80;99.90;;;;;;4970274;28;20035;-75
2022/04/01 07:51:39;;;;;;;0.00;0.00;;;6.10;99.90;;;;;;4970673;28;20034;-74
2022/04/01 07:54:05;;;;;;;0.00;0.00;;;6.80;99.90;;;;;;4971384;28;20085;-75
2022/04/01 07:56:31;;;;;;;1.85;0.65;;;9.70;99.40;;;;;;4970558;28;20041;-74
2022/04/01 07:59:00;;;;;;;0.20;0.10;;;12.00;94.90;;;;;;4971334;28;20486;-74
2022/04/01 08:01:26;;;;;;;0.00;0.00;;;13.20;93.00;;;;;;4966763;28;20517;-74
2022/04/01 08:03:52;;;;;;;2.40;0.25;;;13.80;91.60;;;;;;4971060;28;20030;-76
2022/04/01 08:06:17;;;;;;;0.00;0.00;;;14.50;91.00;;;;;;4971852;28;20018;-74
2022/04/01 08:08:43;;;;;;;0.10;0.10;;;14.70;90.10;;;;;;4971673;28;20383;-76
2022/04/01 08:11:09;;;;;;;0.05;0.05;;;15.30;88.70;;;;;;4971517;28;20019;-76
2022/04/01 08:13:35;;;;;;;0.38;0.38;;;15.20;87.90;;;;;;4970473;28;20035;-76
2022/04/01 08:16:01;;;;;;;0.10;0.10;;;15.60;88.00;;;;;;4966975;28;20045;-76
2022/04/01 08:18:27;;;;;;;0.55;0.55;;;15.60;86.40;;;;;;4970685;28;20039;-75
2022/04/01 08:20:53;;;;;;;0.35;0.13;;;15.70;86.30;;;;;;4970248;28;20113;-75
2022/04/01 08:23:19;;;;;;;0.60;0.15;;;16.00;86.00;;;;;;4970783;28;20557;-76
2022/04/01 08:25:46;;;;;;;4.03;0.43;;;16.70;84.80;;;;;;4969943;28;20022;-76
2022/04/01 08:28:12;;;;;;;2.95;0.30;;;17.00;84.20;;;;;;4970134;28;20105;-77
2022/04/01 08:30:39;;;;;;;5.20;0.95;;;17.40;82.70;;;;;;4969134;28;20037;-76
2022/04/01 08:33:05;;;;;;;0.60;0.60;;;17.10;81.90;;;;;;4969027;28;20027;-75
2022/04/01 08:35:31;;;;;;;0.30;0.30;;;17.80;80.80;;;;;;4970109;28;20184;-76
2022/04/01 08:37:58;;;;;;;1.25;0.90;;;17.20;79.90;;;;;;4971186;28;20057;-75
2022/04/01 08:40:24;;;;;;;1.20;0.32;;;17.00;80.70;;;;;;4975239;28;20497;-76
2022/04/01 08:42:50;;;;;;;0.00;0.00;;;17.10;80.10;;;;;;4973259;28;20066;-75
2022/04/01 08:45:18;;;;;;;0.20;0.20;;;15.00;84.10;;;;;;4974530;28;20543;-76
2022/04/01 08:47:44;;;;;;;0.32;0.32;;;15.30;83.10;;;;;;4973647;28;21136;-75
2022/04/01 08:50:10;;;;;;;1.60;0.50;;;16.40;82.00;;;;;;4972069;28;20419;-75
2022/04/01 08:52:36;;;;;;;0.10;0.10;;;17.20;79.70;;;;;;4974080;28;20054;-75
2022/04/01 08:55:05;;;;;;;0.20;0.20;;;17.70;77.30;;;;;;4973171;28;20508;-75
2022/04/01 08:57:35;;;;;;;0.20;0.20;;;17.90;78.50;;;;;;4972812;28;20027;-75
2022/04/01 09:00:03;;;;;;;5.18;0.20;;;18.20;76.90;;;;;;4973692;28;20046;-76
2022/04/01 09:02:28;;;;;;;2.72;1.23;;;17.90;76.40;;;;;;4974351;28;20039;-74
2022/04/01 09:05:07;;;;;;;1.80;0.50;;;17.80;75.60;;;;;;4974074;28;20548;-76
2022/04/01 09:07:34;;;;;;;0.28;0.28;;;17.60;74.60;;;;;;4974700;28;20110;-74
2022/04/01 09:10:09;;;;;;;0.03;0.03;;;15.60;78.10;;;;;;4973660;28;20038;-75
2022/04/01 09:12:35;;;;;;;0.05;0.05;;;14.00;80.20;;;;;;4974260;28;20037;-74
2022/04/01 09:15:03;;;;;;;2.83;0.30;;;14.70;83.10;;;;;;4969951;28;20030;-75
2022/04/01 09:17:45;;;;;;;1.20;0.65;;;15.10;78.60;;;;;;4973466;28;20405;-74
2022/04/01 09:20:14;;;;;;;0.13;0.13;;;13.40;82.80;;;;;;4973787;28;20030;-74
2022/04/01 09:22:42;;;;;;;0.00;0.00;;;14.00;81.90;;;;;;4973833;28;20126;-75
2022/04/01 09:25:16;;;;;;;2.33;0.90;;;13.00;85.30;;;;;;4972260;28;20027;-79
2022/04/01 09:27:49;;;;;;;0.20;0.10;;;14.10;84.50;;;;;;4972127;28;20030;-74
2022/04/01 09:30:24;;;;;;;0.30;0.20;;;14.80;81.30;;;;;;4968136;28;20031;-74
2022/04/01 09:32:53;;;;;;;0.10;0.10;;;17.30;79.70;;;;;;4970902;28;20076;-74
2022/04/01 09:35:22;;;;;;;1.08;0.45;;;18.90;75.30;;;;;;4969774;28;20034;-75
2022/04/01 09:37:58;;;;;;;0.22;0.22;;;17.60;76.20;;;;;;4973614;28;20209;-75
2022/04/01 09:40:25;;;;;;;0.30;0.10;;;18.80;73.50;;;;;;4973543;28;20031;-76
2022/04/01 09:42:55;;;;;;;0.47;0.30;;;18.60;74.40;;;;;;4970562;28;20042;-76
2022/04/01 09:45:29;;;;;;;0.17;0.15;;;18.70;73.50;;;;;;4973567;28;20027;-75
2022/04/01 09:48:16;;;;;;;0.25;0.22;;;18.40;72.10;;;;;;4988152;28;20049;-75
2022/04/01 09:50:44;;;;;;;0.35;0.35;;;17.10;74.60;;;;;;4972391;28;20027;-74
2022/04/01 09:53:16;;;;;;;0.10;0.10;;;14.70;75.50;;;;;;4972827;28;20035;-74
2022/04/01 09:55:47;;;;;;;0.10;0.10;;;14.80;79.40;;;;;;4971494;28;20046;-75
2022/04/01 09:58:15;;;;;;;0.25;0.25;;;14.20;78.80;;;;;;4973100;28;20110;-75
2022/04/01 10:00:41;;;;;;;0.60;0.38;;;14.30;80.80;;;;;;4971873;28;20033;-74
2022/04/01 10:03:08;;;;;;;0.17;0.17;;;13.20;80.80;;;;;;4973081;28;20070;-74
2022/04/01 10:05:36;;;;;;;15.13;0.17;;;12.50;80.20;;;;;;4971841;28;20106;-75
2022/04/01 10:08:04;;;;;;;0.88;0.63;;;12.90;80.00;;;;;;4971883;28;20033;-74
2022/04/01 10:10:30;;;;;;;0.50;0.50;;;14.10;81.60;;;;;;4972699;28;20023;-74
2022/04/01 10:13:05;;;;;;;0.08;0.08;;;14.50;82.00;;;;;;4971106;28;20097;-74
2022/04/01 10:15:32;;;;;;;0.05;0.05;;;14.40;77.60;;;;;;4972916;28;20034;-75
2022/04/01 10:17:58;;;;;;;0.10;0.10;;;14.90;78.30;;;;;;4968019;28;20031;-75
2022/04/01 10:20:36;;;;;;;1.10;0.85;;;15.00;77.00;;;;;;4970985;28;20149;-75
2022/04/01 10:23:09;;;;;;;0.30;0.10;;;14.20;78.10;;;;;;4972428;28;20058;-76
2022/04/01 10:25:49;;;;;;;0.00;0.00;;;13.20;77.30;;;;;;4971958;28;20110;-76
2022/04/01 10:28:17;;;;;;;0.63;0.43;;;13.20;76.60;;;;;;4972237;28;20091;-77
2022/04/01 10:30:54;;;;;;;2.15;0.68;;;13.60;77.90;;;;;;4972905;28;20015;-77
2022/04/01 10:33:35;;;;;;;1.35;0.20;;;13.70;75.50;;;;;;4972829;28;20053;-76
2022/04/01 10:36:22;;;;;;;0.00;0.00;;;14.00;75.90;;;;;;4972132;28;20015;-76
2022/04/01 10:38:48;;;;;;;0.30;0.30;;;13.80;77.80;;;;;;4965353;28;20050;-76
2022/04/01 10:41:15;;;;;;;0.22;0.10;;;13.40;77.80;;;;;;4969803;28;20065;-76
2022/04/01 10:43:46;;;;;;;0.40;0.40;;;13.20;77.80;;;;;;4970550;28;20026;-77
2022/04/01 10:46:14;;;;;;;12.70;2.50;;;13.30;82.20;;;;;;4967103;28;20023;-77
2022/04/01 10:52:15;;;;;;;0.00;0.00;;;12.50;78.80;;;;;;4970046;28;20034;-76
2022/04/01 10:54:45;;;;;;;0.10;0.10;;;13.20;81.60;;;;;;4968907;28;20039;-76
2022/04/01 10:57:32;;;;;;;5.35;0.55;;;12.50;77.50;;;;;;4971613;28;20494;-76
2022/04/01 11:00:07;;;;;;;0.30;0.30;;;12.40;78.90;;;;;;4970422;28;20125;-76
2022/04/01 11:02:33;;;;;;;0.10;0.10;;;11.50;80.10;;;;;;4968177;28;20046;-76
2022/04/01 11:05:00;;;;;;;0.10;0.10;;;11.70;79.60;;;;;;4971598;28;20019;-76
2022/04/01 11:07:26;;;;;;;0.00;0.00;;;12.00;79.50;;;;;;4973920;28;20034;-76
2022/04/01 11:10:04;;;;;;;0.40;0.40;;;12.30;83.30;;;;;;4973802;28;20543;-76
2022/04/01 11:12:40;;;;;;;1.23;0.10;;;12.50;80.70;;;;;;4971183;28;20094;-76
2022/04/01 11:15:11;;;;;;;0.17;0.10;;;12.70;82.00;;;;;;4971900;28;20031;-76
2022/04/01 11:17:37;;;;;;;0.38;0.38;;;12.40;80.50;;;;;;4974500;28;20506;-76
2022/04/01 11:20:09;;;;;;;0.00;0.00;;;12.70;80.70;;;;;;4968369;28;20125;-76
2022/04/01 11:22:56;;;;;;;0.10;0.10;;;12.80;81.30;;;;;;4973197;28;20034;-76
2022/04/01 11:25:22;;;;;;;0.22;0.22;;;12.00;82.30;;;;;;4991496;28;20470;-76
2022/04/01 11:28:11;;;;;;;0.03;0.03;;;11.10;84.00;;;;;;4975021;28;20031;-76
2022/04/01 11:30:45;;;;;;;0.00;0.00;;;10.60;85.10;;;;;;4973578;28;20085;-76
2022/04/01 11:33:12;;;;;;;0.00;0.00;;;11.00;84.60;;;;;;4978703;28;20034;-76
2022/04/01 11:35:46;;;;;;;1.05;0.77;;;11.10;86.20;;;;;;4973075;28;20054;-76
2022/04/01 11:38:15;;;;;;;0.00;0.00;;;11.90;83.00;;;;;;4972311;28;20573;-77
2022/04/01 11:40:41;;;;;;;0.00;0.00;;;12.20;81.40;;;;;;4973326;28;20027;-77
2022/04/01 11:43:09;;;;;;;0.10;0.10;;;12.40;81.00;;;;;;4973680;28;20027;-76
2022/04/01 11:45:36;;;;;;;0.52;0.08;;;12.40;81.60;;;;;;4987033;28;20035;-76
2022/04/01 11:48:22;;;;;;;0.43;0.43;;;12.50;77.80;;;;;;4972965;28;20486;-76
2022/04/01 11:50:54;;;;;;;0.32;0.30;;;12.70;77.60;;;;;;4968194;28;20483;-76
2022/04/01 11:53:35;;;;;;;0.08;0.00;;;12.70;80.60;;;;;;4971554;28;20483;-76
2022/04/01 11:56:01;;;;;;;0.55;0.10;;;12.90;77.70;;;;;;4981881;28;20053;-76
2022/04/01 11:58:34;;;;;;;0.00;0.00;;;12.10;77.50;;;;;;5000337;28;20414;-76
2022/04/01 12:01:00;;;;;;;0.10;0.10;;;11.30;79.10;;;;;;4970349;28;20606;-76
2022/04/01 12:03:26;;;;;;;0.00;0.00;;;11.50;77.30;;;;;;4976480;28;20086;-77
2022/04/01 12:08:41;;;;;;;0.00;0.00;;;12.00;77.20;;;;;;4978569;28;20031;-76
2022/04/01 12:08:42;;;;;;;1.98;0.30;;;12.20;74.80;;;;;;4978838;28;20019;-76
2022/04/01 12:11:09;;;;;;;0.00;0.00;;;12.10;76.00;;;;;;4979706;28;20030;-76
2022/04/01 12:13:47;;;;;;;0.08;0.00;;;12.00;75.50;;;;;;4987306;28;20027;-76
2022/04/01 12:16:13;;;;;;;0.00;0.00;;;12.40;78.60;;;;;;4977522;28;20140;-76
2022/04/01 12:18:40;;;;;;;0.00;0.00;;;12.70;77.00;;;;;;4979638;28;20509;-76
2022/04/01 12:21:06;;;;;;;0.08;0.08;;;12.30;76.70;;;;;;4989013;28;20490;-76
2022/04/01 12:23:33;;;;;;;0.17;0.10;;;12.20;76.20;;;;;;4975739;28;20034;-76
2022/04/01 12:26:00;;;;;;;0.00;0.00;;;11.90;79.00;;;;;;4975233;28;20038;-76
2022/04/01 12:28:41;;;;;;;0.00;0.00;;;11.30;86.30;;;;;;4988486;28;20045;-76
2022/04/01 12:31:24;;;;;;;0.17;0.17;;;10.70;89.40;;;;;;4968211;28;20047;-77
2022/04/01 12:33:51;;;;;;;5.03;0.13;;;10.20;89.50;;;;;;4981187;28;20054;-76
2022/04/01 12:36:38;;;;;;;4.82;0.85;;;9.70;90.30;;;;;;4993505;28;20274;-75
2022/04/01 12:39:08;;;;;;;0.00;0.00;;;9.90;88.60;;;;;;4971995;28;20042;-77
2022/04/01 12:41:34;;;;;;;6.55;0.28;;;11.00;86.20;;;;;;4984573;28;20081;-76
2022/04/01 12:44:13;;;;;;;0.15;0.10;;;11.20;85.00;;;;;;4973804;28;20042;-75
2022/04/01 12:46:39;;;;;;;0.00;0.00;;;10.90;89.80;;;;;;4974822;28;20518;-77
2022/04/01 12:49:13;;;;;;;0.00;0.00;;;10.20;90.30;;;;;;4971890;28;20406;-76
2022/04/01 12:51:47;;;;;;;13.80;0.25;;;10.10;91.90;;;;;;4972774;28;20035;-76
2022/04/01 12:54:31;;;;;;;0.00;0.00;;;10.50;91.30;;;;;;4970686;28;20066;-76
2022/04/01 12:56:58;;;;;;;0.00;0.00;;;10.60;90.20;;;;;;4969103;28;20447;-76
2022/04/01 12:59:24;;;;;;;0.00;0.00;;;10.30;90.90;;;;;;4974065;28;20074;-77
2022/04/01 13:02:00;;;;;;;0.00;0.00;;;10.30;89.70;;;;;;4974723;28;20031;-76
2022/04/01 13:04:25;;;;;;;0.10;0.10;;;10.70;88.90;;;;;;4970156;28;20023;-74
2022/04/01 13:07:09;;;;;;;0.00;0.00;;;11.50;88.30;;;;;;4974574;28;20034;-75
2022/04/01 13:09:59;;;;;;;0.05;0.05;;;12.10;85.20;;;;;;4963770;28;20425;-72
2022/04/01 13:12:42;;;;;;;0.00;0.00;;;11.70;80.30;;;;;;4973939;28;20035;-73
2022/04/01 13:15:09;;;;;;;;;;;11.00;84.90;;;;;;4974551;28;20037;-75
2022/04/01 13:17:51;;;;;;;0.00;0.00;;;10.40;83.60;;;;;;4974491;28;20545;-74
2022/04/01 13:20:24;;;;;;;0.00;0.00;;;9.80;86.00;;;;;;4974360;28;20027;-73